Amasa, Michigan
Current Conditions -  °F | °C
As of 7:54 PM on Sunday 21 Dec 2014 (Local Time) from KIMT Reporting Station
Haze Haze  
Wind Chill: 22°   Ceiling: 600
Heat Index: 33°   Visibility: 3mi
Dew Point: 31°   Wind: 17mph
Humidity: 92%   Direction: 160°SSE
Pressure: 29.91"   Gusts: 23mph
Location:  46.23°N, 88.45°W
Report Text: KIMT 220154Z AUTO 16015G20KT 3SM BR OVC006 01/M01 A2991 RMK AO2 SNB0057E51 SLP144 P0000 T00061006
Loading
Personal Weather Stations






























Interactive Weather Map New forecast layout! Learn more

10-Day Weather Forecast

Advertisements
Track Severe Weather on mobile